createdAt,value
2019-05-21T00:00:12.715Z,999.27
2019-05-21T00:01:12.711Z,999.29
2019-05-21T00:02:12.695Z,999.27
2019-05-21T00:03:12.714Z,999.31
2019-05-21T00:04:27.109Z,999.29
2019-05-21T00:05:13.656Z,999.28
2019-05-21T00:06:12.653Z,999.33
2019-05-21T00:07:12.651Z,999.35
2019-05-21T00:08:12.669Z,999.33
2019-05-21T00:09:12.612Z,999.27
2019-05-21T00:10:12.611Z,999.28
2019-05-21T00:11:12.611Z,999.26
2019-05-21T00:12:12.593Z,999.24
2019-05-21T00:13:12.597Z,999.22
2019-05-21T00:14:12.576Z,999.21
2019-05-21T00:15:12.562Z,999.26
2019-05-21T00:16:12.573Z,999.24
2019-05-21T00:17:12.527Z,999.23
2019-05-21T00:18:12.538Z,999.28
2019-05-21T00:19:12.511Z,999.21
2019-05-21T00:20:12.512Z,999.21
2019-05-21T00:21:12.487Z,999.21
2019-05-21T00:22:12.475Z,999.25
2019-05-21T00:23:12.494Z,999.32
2019-05-21T00:24:12.449Z,999.23
2019-05-21T00:25:16.729Z,999.29
2019-05-21T00:26:12.497Z,999.30
2019-05-21T00:27:12.424Z,999.34
2019-05-21T00:28:12.435Z,999.31
2019-05-21T00:29:12.401Z,999.35
2019-05-21T00:30:12.389Z,999.36
2019-05-21T00:31:12.381Z,999.34
2019-05-21T00:32:12.375Z,999.33
2019-05-21T00:33:12.359Z,999.35
2019-05-21T00:34:12.365Z,999.41
2019-05-21T00:35:12.341Z,999.41
2019-05-21T00:36:12.319Z,999.40
2019-05-21T00:37:12.325Z,999.39
2019-05-21T00:38:12.293Z,999.42
2019-05-21T00:39:12.301Z,999.45
2019-05-21T00:40:12.289Z,999.39
2019-05-21T00:41:12.287Z,999.43
2019-05-21T00:42:12.255Z,999.37
2019-05-21T00:43:12.265Z,999.38
2019-05-21T00:44:12.262Z,999.38
2019-05-21T00:45:12.220Z,999.35
2019-05-21T00:46:12.209Z,999.40
2019-05-21T00:47:12.211Z,999.38
2019-05-21T00:48:12.187Z,999.34
2019-05-21T00:49:12.209Z,999.44
2019-05-21T00:50:12.166Z,999.37
2019-05-21T00:51:12.149Z,999.37
2019-05-21T00:52:12.146Z,999.42
2019-05-21T00:53:12.137Z,999.40
2019-05-21T00:54:12.119Z,999.42
2019-05-21T00:55:12.123Z,999.43
2019-05-21T00:56:12.095Z,999.47
2019-05-21T00:57:12.087Z,999.51
2019-05-21T00:58:12.076Z,999.51
2019-05-21T00:59:12.070Z,999.48
2019-05-21T01:00:12.398Z,999.50
2019-05-21T01:01:12.046Z,999.49
2019-05-21T01:02:12.040Z,999.50
2019-05-21T01:03:12.026Z,999.46
2019-05-21T01:04:12.018Z,999.49
2019-05-21T01:05:12.023Z,999.46
2019-05-21T01:06:12.018Z,999.51
2019-05-21T01:07:11.994Z,999.56
2019-05-21T01:08:11.980Z,999.51
2019-05-21T01:09:11.977Z,999.54
2019-05-21T01:10:11.965Z,999.48
2019-05-21T01:11:11.940Z,999.52
2019-05-21T01:12:11.934Z,999.62
2019-05-21T01:13:11.909Z,999.58
2019-05-21T01:14:11.902Z,999.57
2019-05-21T01:15:11.910Z,999.57
2019-05-21T01:16:11.886Z,999.61
2019-05-21T01:17:11.892Z,999.58
2019-05-21T01:18:11.861Z,999.51
2019-05-21T01:19:11.850Z,999.52
2019-05-21T01:20:11.861Z,999.48
2019-05-21T01:21:11.843Z,999.48
2019-05-21T01:22:11.830Z,999.51
2019-05-21T01:23:11.820Z,999.48
2019-05-21T01:24:11.793Z,999.45
2019-05-21T01:25:11.810Z,999.49
2019-05-21T01:26:11.790Z,999.42
2019-05-21T01:27:11.766Z,999.45
2019-05-21T01:28:11.766Z,999.45
2019-05-21T01:29:11.743Z,999.42
2019-05-21T01:30:11.740Z,999.34
2019-05-21T01:31:11.739Z,999.40
2019-05-21T01:32:11.710Z,999.41
2019-05-21T01:33:11.696Z,999.41
2019-05-21T01:34:11.805Z,999.47
2019-05-21T01:35:17.152Z,999.47
2019-05-21T01:36:12.681Z,999.51
2019-05-21T01:37:11.654Z,999.48
2019-05-21T01:38:11.647Z,999.54
2019-05-21T01:39:11.628Z,999.49
2019-05-21T01:40:11.618Z,999.48
2019-05-21T01:41:11.634Z,999.51
2019-05-21T01:42:11.602Z,999.48
2019-05-21T01:43:11.591Z,999.44
2019-05-21T01:44:11.581Z,999.41
2019-05-21T01:45:11.565Z,999.45
2019-05-21T01:46:11.589Z,999.46
2019-05-21T01:47:11.543Z,999.39
2019-05-21T01:48:11.556Z,999.42
2019-05-21T01:49:11.525Z,999.40
2019-05-21T01:50:11.525Z,999.39
2019-05-21T01:51:11.535Z,999.42
2019-05-21T01:52:11.512Z,999.39
2019-05-21T01:53:11.473Z,999.41
2019-05-21T01:54:11.475Z,999.32
2019-05-21T01:55:11.463Z,999.40
2019-05-21T01:56:11.455Z,999.38
2019-05-21T01:57:11.458Z,999.40
2019-05-21T01:58:11.447Z,999.43
2019-05-21T01:59:11.411Z,999.48
2019-05-21T02:00:11.408Z,999.39
2019-05-21T02:01:11.405Z,999.42
2019-05-21T02:02:11.415Z,999.42
2019-05-21T02:03:11.367Z,999.42
2019-05-21T02:04:11.355Z,999.45
2019-05-21T02:05:11.369Z,999.42
2019-05-21T02:06:11.340Z,999.41
2019-05-21T02:07:11.366Z,999.42
2019-05-21T02:08:11.331Z,999.42
2019-05-21T02:09:11.305Z,999.42
2019-05-21T02:10:11.297Z,999.38
2019-05-21T02:11:11.281Z,999.35
2019-05-21T02:12:11.298Z,999.36
2019-05-21T02:13:11.264Z,999.44
2019-05-21T02:14:11.256Z,999.39
2019-05-21T02:15:11.243Z,999.42
2019-05-21T02:16:11.226Z,999.42
2019-05-21T02:17:11.255Z,999.45
2019-05-21T02:18:11.207Z,999.49
2019-05-21T02:19:11.191Z,999.51
2019-05-21T02:20:11.188Z,999.56
2019-05-21T02:21:11.173Z,999.56
2019-05-21T02:22:11.184Z,999.56
2019-05-21T02:23:11.154Z,999.50
2019-05-21T02:24:11.166Z,999.46
2019-05-21T02:25:11.135Z,999.49
2019-05-21T02:26:11.125Z,999.54
2019-05-21T02:27:11.136Z,999.51
2019-05-21T02:28:11.094Z,999.52
2019-05-21T02:29:11.090Z,999.52
2019-05-21T02:30:11.095Z,999.49
2019-05-21T02:31:11.073Z,999.48
2019-05-21T02:32:11.095Z,999.46
2019-05-21T02:33:11.045Z,999.46
2019-05-21T02:34:11.035Z,999.54
2019-05-21T02:35:11.051Z,999.63
2019-05-21T02:36:11.014Z,999.60
2019-05-21T02:37:11.025Z,999.54
2019-05-21T02:38:11.008Z,999.61
2019-05-21T02:39:11.026Z,999.63
2019-05-21T02:40:11.008Z,999.63
2019-05-21T02:41:10.951Z,999.62
2019-05-21T02:42:10.948Z,999.58
2019-05-21T02:43:10.965Z,999.67
2019-05-21T02:44:10.925Z,999.61
2019-05-21T02:45:10.941Z,999.67
2019-05-21T02:46:10.895Z,999.70
2019-05-21T02:47:10.891Z,999.69
2019-05-21T02:48:10.909Z,999.71
2019-05-21T02:49:10.890Z,999.66
2019-05-21T02:50:10.859Z,999.73
2019-05-21T02:51:10.856Z,999.72
2019-05-21T02:52:10.847Z,999.78
2019-05-21T02:53:10.848Z,999.73
2019-05-21T02:54:10.828Z,999.78
2019-05-21T02:55:10.808Z,999.81
2019-05-21T02:56:10.813Z,999.82
2019-05-21T02:57:10.802Z,999.77
2019-05-21T02:58:10.786Z,999.84
2019-05-21T02:59:10.765Z,999.80
2019-05-21T03:00:10.773Z,999.84
2019-05-21T03:01:10.731Z,999.83
2019-05-21T03:02:10.733Z,999.82
2019-05-21T03:03:10.736Z,999.88
2019-05-21T03:04:10.704Z,999.90
2019-05-21T03:05:10.691Z,999.91
2019-05-21T03:06:14.384Z,999.96
2019-05-21T03:07:10.695Z,999.93
2019-05-21T03:08:10.681Z,1000.02
2019-05-21T03:09:10.646Z,1000.02
2019-05-21T03:10:10.628Z,1000.05
2019-05-21T03:11:10.638Z,1000.08
2019-05-21T03:12:10.640Z,1000.04
2019-05-21T03:13:10.621Z,1000.05
2019-05-21T03:14:10.594Z,1000.08
2019-05-21T03:15:10.576Z,1000.09
2019-05-21T03:16:10.567Z,1000.07
2019-05-21T03:17:10.569Z,999.99
2019-05-21T03:18:10.574Z,1000.02
2019-05-21T03:19:10.543Z,1000.02
2019-05-21T03:20:10.535Z,1000.02
2019-05-21T03:21:10.527Z,1000.00
2019-05-21T03:22:10.516Z,1000.02
2019-05-21T03:23:10.509Z,999.99
2019-05-21T03:24:10.482Z,999.93
2019-05-21T03:25:10.472Z,999.91
2019-05-21T03:26:10.483Z,1000.00
2019-05-21T03:27:10.446Z,1000.00
2019-05-21T03:28:10.450Z,999.92
2019-05-21T03:29:10.442Z,999.94
2019-05-21T03:30:10.414Z,1000.00
2019-05-21T03:31:10.413Z,1000.00
2019-05-21T03:32:10.406Z,1000.04
2019-05-21T03:33:10.403Z,1000.03
2019-05-21T03:34:10.382Z,1000.06
2019-05-21T03:35:10.434Z,1000.05
2019-05-21T03:36:10.344Z,1000.04
2019-05-21T03:37:10.353Z,1000.05
2019-05-21T03:38:10.350Z,1000.17
2019-05-21T03:39:10.332Z,1000.11
2019-05-21T03:40:10.317Z,1000.12
2019-05-21T03:41:10.305Z,1000.13
2019-05-21T03:42:10.287Z,1000.19
2019-05-21T03:43:10.303Z,1000.16
2019-05-21T03:44:10.261Z,1000.16
2019-05-21T03:45:10.268Z,1000.18
2019-05-21T03:46:10.243Z,1000.15
2019-05-21T03:47:10.257Z,1000.11
2019-05-21T03:48:10.230Z,1000.11
2019-05-21T03:49:10.215Z,1000.14
2019-05-21T03:50:10.223Z,1000.16
2019-05-21T03:51:10.185Z,1000.10
2019-05-21T03:52:10.177Z,1000.12
2019-05-21T03:53:10.185Z,1000.13
2019-05-21T03:54:10.163Z,1000.14
2019-05-21T03:55:10.145Z,1000.19
2019-05-21T03:56:10.144Z,1000.14
2019-05-21T03:57:10.124Z,1000.14
2019-05-21T03:58:10.128Z,1000.11
2019-05-21T03:59:10.102Z,1000.15
2019-05-21T04:00:10.097Z,1000.17
2019-05-21T04:01:10.078Z,1000.21
2019-05-21T04:02:10.066Z,1000.28
2019-05-21T04:03:10.080Z,1000.26
2019-05-21T04:04:10.040Z,1000.31
2019-05-21T04:05:10.065Z,1000.26
2019-05-21T04:06:10.025Z,1000.29
2019-05-21T04:07:10.020Z,1000.28
2019-05-21T04:08:10.010Z,1000.27
2019-05-21T04:09:10.018Z,1000.25
2019-05-21T04:10:09.979Z,1000.26
2019-05-21T04:11:09.979Z,1000.23
2019-05-21T04:12:09.952Z,1000.23
2019-05-21T04:13:10.021Z,1000.24
2019-05-21T04:14:09.952Z,1000.30
2019-05-21T04:15:09.934Z,1000.24
2019-05-21T04:16:09.917Z,1000.23
2019-05-21T04:17:09.907Z,1000.26
2019-05-21T04:18:09.893Z,1000.28
2019-05-21T04:19:09.892Z,1000.26
2019-05-21T04:20:09.924Z,1000.28
2019-05-21T04:21:09.854Z,1000.27
2019-05-21T04:22:09.850Z,1000.25
2019-05-21T04:23:09.843Z,1000.25
2019-05-21T04:24:09.881Z,1000.26
2019-05-21T04:25:09.822Z,1000.24
2019-05-21T04:26:09.796Z,1000.34
2019-05-21T04:27:09.801Z,1000.33
2019-05-21T04:28:09.803Z,1000.31
2019-05-21T04:29:09.784Z,1000.35
2019-05-21T04:30:11.298Z,1000.41
2019-05-21T04:31:09.773Z,1000.40
2019-05-21T04:32:09.740Z,1000.45
2019-05-21T04:33:09.727Z,1000.35
2019-05-21T04:34:09.723Z,1000.37
2019-05-21T04:35:09.817Z,1000.35
2019-05-21T04:36:09.702Z,1000.33
2019-05-21T04:37:11.583Z,1000.27
2019-05-21T04:38:09.676Z,1000.25
2019-05-21T04:39:09.683Z,1000.29
2019-05-21T04:40:09.696Z,1000.25
2019-05-21T04:41:09.645Z,1000.25
2019-05-21T04:42:09.625Z,1000.19
2019-05-21T04:43:09.624Z,1000.22
2019-05-21T04:44:09.627Z,1000.29
2019-05-21T04:45:09.614Z,1000.30
2019-05-21T04:46:09.601Z,1000.29
2019-05-21T04:47:09.578Z,1000.35
2019-05-21T04:48:09.561Z,1000.38
2019-05-21T04:49:09.585Z,1000.36
2019-05-21T04:50:09.545Z,1000.39
2019-05-21T04:51:13.468Z,1000.40
2019-05-21T04:52:09.523Z,1000.38
2019-05-21T04:53:09.511Z,1000.38
2019-05-21T04:54:09.522Z,1000.38
2019-05-21T04:55:09.493Z,1000.38
2019-05-21T04:56:09.470Z,1000.42
2019-05-21T04:57:09.488Z,1000.38
2019-05-21T04:58:09.457Z,1000.38
2019-05-21T04:59:09.453Z,1000.43
2019-05-21T05:00:09.444Z,1000.42
2019-05-21T05:01:09.424Z,1000.44
2019-05-21T05:02:09.409Z,1000.47
2019-05-21T05:03:09.416Z,1000.47
2019-05-21T05:04:09.413Z,1000.51
2019-05-21T05:05:09.379Z,1000.48
2019-05-21T05:06:09.375Z,1000.49
2019-05-21T05:07:09.412Z,1000.54
2019-05-21T05:08:09.352Z,1000.50
2019-05-21T05:09:09.343Z,1000.60
2019-05-21T05:10:09.318Z,1000.58
2019-05-21T05:11:09.312Z,1000.56
2019-05-21T05:12:09.305Z,1000.62
2019-05-21T05:13:09.286Z,1000.63
2019-05-21T05:14:09.295Z,1000.63
2019-05-21T05:15:09.266Z,1000.59
2019-05-21T05:16:09.256Z,1000.53
2019-05-21T05:17:09.246Z,1000.51
2019-05-21T05:18:09.240Z,1000.51
2019-05-21T05:19:09.246Z,1000.51
2019-05-21T05:20:09.217Z,1000.51
2019-05-21T05:21:09.204Z,1000.43
2019-05-21T05:22:09.190Z,1000.46
2019-05-21T05:23:09.182Z,1000.50
2019-05-21T05:24:09.190Z,1000.37
2019-05-21T05:25:09.164Z,1000.43
2019-05-21T05:26:09.149Z,1000.41
2019-05-21T05:27:09.148Z,1000.46
2019-05-21T05:28:09.171Z,1000.42
2019-05-21T05:29:09.144Z,1000.43
2019-05-21T05:30:09.108Z,1000.46
2019-05-21T05:31:09.108Z,1000.43
2019-05-21T05:32:09.080Z,1000.41
2019-05-21T05:33:09.072Z,1000.46
2019-05-21T05:34:09.063Z,1000.50
2019-05-21T05:35:09.064Z,1000.51
2019-05-21T05:36:09.045Z,1000.55
2019-05-21T05:37:09.032Z,1000.54
2019-05-21T05:38:09.022Z,1000.56
2019-05-21T05:39:09.005Z,1000.56
2019-05-21T05:40:09.028Z,1000.59
2019-05-21T05:41:08.985Z,1000.61
2019-05-21T05:42:08.971Z,1000.58
2019-05-21T05:43:08.969Z,1000.60
2019-05-21T05:44:08.957Z,1000.57
2019-05-21T05:45:08.954Z,1000.61
2019-05-21T05:46:08.940Z,1000.74
2019-05-21T05:47:08.915Z,1000.62
2019-05-21T05:48:08.903Z,1000.61
2019-05-21T05:49:08.896Z,1000.68
2019-05-21T05:50:08.895Z,1000.66
2019-05-21T05:51:08.882Z,1000.63
2019-05-21T05:52:08.859Z,1000.61
2019-05-21T05:53:08.858Z,1000.69
2019-05-21T05:54:08.839Z,1000.73
2019-05-21T05:55:08.842Z,1000.65
2019-05-21T05:56:08.815Z,1000.70
2019-05-21T05:57:08.817Z,1000.77
2019-05-21T05:58:08.797Z,1000.67
2019-05-21T05:59:08.790Z,1000.72
2019-05-21T06:00:08.794Z,1000.75
2019-05-21T06:01:08.772Z,1000.74
2019-05-21T06:02:08.757Z,1000.77
2019-05-21T06:03:08.758Z,1000.75
2019-05-21T06:04:08.732Z,1000.80
2019-05-21T06:05:08.734Z,1000.72
2019-05-21T06:06:08.710Z,1000.71
2019-05-21T06:07:08.704Z,1000.70
2019-05-21T06:08:08.687Z,1000.72
2019-05-21T06:09:08.675Z,1000.69
2019-05-21T06:10:08.679Z,1000.72
2019-05-21T06:11:08.670Z,1000.74
2019-05-21T06:12:08.646Z,1000.75
2019-05-21T06:13:08.637Z,1000.72
2019-05-21T06:14:08.625Z,1000.74
2019-05-21T06:15:08.663Z,1000.70
2019-05-21T06:16:08.597Z,1000.69
2019-05-21T06:17:08.591Z,1000.65
2019-05-21T06:18:08.579Z,1000.66
2019-05-21T06:19:08.567Z,1000.68
2019-05-21T06:20:08.571Z,1000.60
2019-05-21T06:21:08.546Z,1000.63
2019-05-21T06:22:08.538Z,1000.66
2019-05-21T06:23:08.527Z,1000.64
2019-05-21T06:24:08.512Z,1000.57
2019-05-21T06:25:08.552Z,1000.60
2019-05-21T06:26:08.499Z,1000.64
2019-05-21T06:27:08.484Z,1000.64
2019-05-21T06:28:08.471Z,1000.59
2019-05-21T06:29:08.467Z,1000.63
2019-05-21T06:30:08.464Z,1000.69
2019-05-21T06:31:08.447Z,1000.60
2019-05-21T06:32:08.434Z,1000.67
2019-05-21T06:33:08.442Z,1000.66
2019-05-21T06:34:08.407Z,1000.69
2019-05-21T06:35:08.412Z,1000.66
2019-05-21T06:36:08.391Z,1000.70
2019-05-21T06:37:08.379Z,1000.76
2019-05-21T06:38:17.104Z,1000.76
2019-05-21T06:39:09.357Z,1000.81
2019-05-21T06:40:08.371Z,1000.88
2019-05-21T06:41:08.335Z,1000.86
2019-05-21T06:42:08.320Z,1000.88
2019-05-21T06:43:08.312Z,1000.84
2019-05-21T06:44:08.302Z,1000.83
2019-05-21T06:45:08.302Z,1000.79
2019-05-21T06:46:08.280Z,1000.86
2019-05-21T06:47:08.275Z,1000.85
2019-05-21T06:48:08.258Z,1000.78
2019-05-21T06:49:08.255Z,1000.83
2019-05-21T06:50:08.257Z,1000.82
2019-05-21T06:51:08.231Z,1000.89
2019-05-21T06:52:08.214Z,1000.89
2019-05-21T06:53:08.205Z,1000.84
2019-05-21T06:54:08.229Z,1000.86
2019-05-21T06:55:08.204Z,1000.83
2019-05-21T06:56:08.193Z,1000.91
2019-05-21T06:57:08.163Z,1000.92
2019-05-21T06:58:08.158Z,1000.93
2019-05-21T06:59:08.144Z,1000.92
2019-05-21T07:00:08.166Z,1000.89
2019-05-21T07:01:08.128Z,1000.98
2019-05-21T07:02:08.155Z,1000.99
2019-05-21T07:03:08.104Z,1000.98
2019-05-21T07:04:08.099Z,1000.97
2019-05-21T07:05:08.095Z,1000.96
2019-05-21T07:06:08.072Z,1000.96
2019-05-21T07:07:08.061Z,1000.96
2019-05-21T07:08:08.048Z,1000.94
2019-05-21T07:09:08.040Z,1000.99
2019-05-21T07:10:08.049Z,1000.87
2019-05-21T07:11:08.014Z,1000.91
2019-05-21T07:12:08.008Z,1000.92
2019-05-21T07:13:08.009Z,1000.94
2019-05-21T07:14:07.984Z,1000.95
2019-05-21T07:15:07.973Z,1000.89
2019-05-21T07:16:07.978Z,1000.95
2019-05-21T07:17:07.956Z,1000.98
2019-05-21T07:18:07.944Z,1000.90
2019-05-21T07:19:07.933Z,1000.99
2019-05-21T07:20:07.931Z,1000.96
2019-05-21T07:21:07.924Z,1001.00
2019-05-21T07:22:12.769Z,1001.04
2019-05-21T07:23:08.891Z,1001.03
2019-05-21T07:24:07.879Z,1000.97
2019-05-21T07:25:07.871Z,1001.00
2019-05-21T07:26:07.871Z,1000.95
2019-05-21T07:27:07.851Z,1000.97
2019-05-21T07:28:07.838Z,1000.98
2019-05-21T07:29:07.845Z,1000.97
2019-05-21T07:30:07.818Z,1000.96
2019-05-21T07:31:07.821Z,1001.03
2019-05-21T07:32:07.800Z,1001.04
2019-05-21T07:33:07.919Z,1001.03
2019-05-21T07:34:07.775Z,1001.03
2019-05-21T07:35:07.765Z,1001.07
2019-05-21T07:36:07.772Z,1001.12
2019-05-21T07:37:07.743Z,1001.11
2019-05-21T07:38:07.736Z,1001.14
2019-05-21T07:39:07.730Z,1001.21
2019-05-21T07:40:07.717Z,1001.20
2019-05-21T07:41:07.716Z,1001.14
2019-05-21T07:42:07.698Z,1001.16
2019-05-21T07:43:07.688Z,1001.17
2019-05-21T07:44:07.677Z,1001.17
2019-05-21T07:45:07.664Z,1001.20
2019-05-21T07:46:07.676Z,1001.19
2019-05-21T07:47:07.638Z,1001.21
2019-05-21T07:48:07.651Z,1001.20
2019-05-21T07:49:07.640Z,1001.21
2019-05-21T07:50:07.613Z,1001.26
2019-05-21T07:51:07.602Z,1001.22
2019-05-21T07:52:07.614Z,1001.18
2019-05-21T07:53:07.583Z,1001.20
2019-05-21T07:54:07.573Z,1001.21
2019-05-21T07:55:07.562Z,1001.21
2019-05-21T07:56:07.548Z,1001.18
2019-05-21T07:57:07.560Z,1001.21
2019-05-21T07:58:07.532Z,1001.21
2019-05-21T07:59:07.525Z,1001.21
2019-05-21T08:00:07.513Z,1001.22
2019-05-21T08:01:07.509Z,1001.26
2019-05-21T08:02:07.504Z,1001.23
2019-05-21T08:03:07.478Z,1001.29
2019-05-21T08:04:07.467Z,1001.27
2019-05-21T08:05:07.734Z,1001.31
2019-05-21T08:06:07.448Z,1001.28
2019-05-21T08:07:07.456Z,1001.34
2019-05-21T08:08:07.427Z,1001.36
2019-05-21T08:09:13.900Z,1001.34
2019-05-21T08:10:08.408Z,1001.28
2019-05-21T08:11:07.401Z,1001.21
2019-05-21T08:12:27.794Z,1001.22
2019-05-21T08:13:08.381Z,1001.27
2019-05-21T08:14:07.367Z,1001.19
2019-05-21T08:15:07.356Z,1001.19
2019-05-21T08:16:07.347Z,1001.17
2019-05-21T08:17:07.339Z,1001.18
2019-05-21T08:18:07.342Z,1001.32
2019-05-21T08:19:07.322Z,1001.25
2019-05-21T08:20:10.026Z,1001.24
2019-05-21T08:21:07.295Z,1001.22
2019-05-21T08:22:07.288Z,1001.27
2019-05-21T08:23:07.287Z,1001.23
2019-05-21T08:24:07.264Z,1001.22
2019-05-21T08:25:07.256Z,1001.22
2019-05-21T08:26:07.243Z,1001.30
2019-05-21T08:27:07.233Z,1001.24
2019-05-21T08:28:07.236Z,1001.24
2019-05-21T08:29:07.210Z,1001.19
2019-05-21T08:30:07.201Z,1001.18
2019-05-21T08:31:07.194Z,1001.22
2019-05-21T08:32:07.177Z,1001.19
2019-05-21T08:33:07.177Z,1001.25
2019-05-21T08:34:07.155Z,1001.26
2019-05-21T08:35:07.151Z,1001.23
2019-05-21T08:36:07.135Z,1001.30
2019-05-21T08:37:07.125Z,1001.33
2019-05-21T08:38:07.133Z,1001.29
2019-05-21T08:39:07.103Z,1001.27
2019-05-21T08:40:07.101Z,1001.25
2019-05-21T08:41:07.081Z,1001.28
2019-05-21T08:42:07.073Z,1001.29
2019-05-21T08:43:07.081Z,1001.36
2019-05-21T08:44:07.053Z,1001.33
2019-05-21T08:45:07.088Z,1001.36
2019-05-21T08:46:07.027Z,1001.33
2019-05-21T08:47:07.017Z,1001.32
2019-05-21T08:48:07.029Z,1001.31
2019-05-21T08:49:07.009Z,1001.31
2019-05-21T08:50:06.986Z,1001.34
2019-05-21T08:51:06.973Z,1001.28
2019-05-21T08:52:07.014Z,1001.23
2019-05-21T08:53:06.961Z,1001.32
2019-05-21T08:54:06.991Z,1001.28
2019-05-21T08:55:06.935Z,1001.39
2019-05-21T08:56:06.920Z,1001.28
2019-05-21T08:57:06.918Z,1001.27
2019-05-21T08:58:07.887Z,1001.27
2019-05-21T08:59:06.900Z,1001.34
2019-05-21T09:00:06.881Z,1001.33
2019-05-21T09:01:06.872Z,1001.37
2019-05-21T09:02:06.861Z,1001.28
2019-05-21T09:03:06.846Z,1001.36
2019-05-21T09:04:06.854Z,1001.41
2019-05-21T09:05:06.821Z,1001.43
2019-05-21T09:06:06.812Z,1001.42
2019-05-21T09:07:06.817Z,1001.41
2019-05-21T09:08:06.822Z,1001.51
2019-05-21T09:09:06.799Z,1001.39
2019-05-21T09:10:06.771Z,1001.40
2019-05-21T09:11:06.758Z,1001.43
2019-05-21T09:12:06.748Z,1001.43
2019-05-21T09:13:06.738Z,1001.40
2019-05-21T09:14:06.753Z,1001.43
2019-05-21T09:15:06.716Z,1001.44
2019-05-21T09:16:06.709Z,1001.47
2019-05-21T09:17:06.698Z,1001.40
2019-05-21T09:18:06.683Z,1001.52
2019-05-21T09:19:06.678Z,1001.49
2019-05-21T09:20:06.695Z,1001.50
2019-05-21T09:21:06.718Z,1001.46
2019-05-21T09:22:06.640Z,1001.50
2019-05-21T09:23:06.630Z,1001.46
2019-05-21T09:24:06.620Z,1001.47
2019-05-21T09:25:06.712Z,1001.58
2019-05-21T09:26:06.609Z,1001.49
2019-05-21T09:27:06.605Z,1001.51
2019-05-21T09:28:06.593Z,1001.49
2019-05-21T09:29:06.568Z,1001.57
2019-05-21T09:30:06.579Z,1001.49
2019-05-21T09:31:06.549Z,1001.52
2019-05-21T09:32:06.536Z,1001.53
2019-05-21T09:33:06.539Z,1001.58
2019-05-21T09:34:06.516Z,1001.51
2019-05-21T09:35:06.521Z,1001.53
2019-05-21T09:36:06.498Z,1001.61
2019-05-21T09:37:18.537Z,1001.62
2019-05-21T09:38:07.513Z,1001.58
2019-05-21T09:39:06.465Z,1001.57
2019-05-21T09:40:06.471Z,1001.60
2019-05-21T09:41:06.440Z,1001.56
2019-05-21T09:42:06.439Z,1001.51
2019-05-21T09:43:06.421Z,1001.55
2019-05-21T09:44:06.413Z,1001.52
2019-05-21T09:45:06.414Z,1001.49
2019-05-21T09:46:06.385Z,1001.51
2019-05-21T09:47:06.377Z,1001.53
2019-05-21T09:48:06.361Z,1001.45
2019-05-21T09:49:06.359Z,1001.54
2019-05-21T09:50:06.568Z,1001.54
2019-05-21T09:51:06.358Z,1001.49
2019-05-21T09:52:06.325Z,1001.53
2019-05-21T09:53:06.311Z,1001.56
2019-05-21T09:54:06.303Z,1001.55
2019-05-21T09:55:06.293Z,1001.57
2019-05-21T09:56:06.302Z,1001.53
2019-05-21T09:57:06.265Z,1001.53
2019-05-21T09:58:06.255Z,1001.56
2019-05-21T09:59:06.251Z,1001.56
2019-05-21T10:00:06.229Z,1001.56
2019-05-21T10:01:06.239Z,1001.51
2019-05-21T10:02:06.236Z,1001.51
2019-05-21T10:03:06.204Z,1001.54
2019-05-21T10:04:06.193Z,1001.51
2019-05-21T10:05:06.184Z,1001.63
2019-05-21T10:06:06.185Z,1001.56
2019-05-21T10:07:06.162Z,1001.58
2019-05-21T10:08:06.160Z,1001.55
2019-05-21T10:09:06.143Z,1001.56
2019-05-21T10:10:06.129Z,1001.54
2019-05-21T10:11:06.140Z,1001.50
2019-05-21T10:12:06.107Z,1001.55
2019-05-21T10:13:06.098Z,1001.67
2019-05-21T10:14:06.089Z,1001.62
2019-05-21T10:15:06.079Z,1001.58
2019-05-21T10:16:06.065Z,1001.63
2019-05-21T10:17:06.067Z,1001.62
2019-05-21T10:18:06.047Z,1001.57
2019-05-21T10:19:06.028Z,1001.61
2019-05-21T10:20:06.027Z,1001.64
2019-05-21T10:21:06.014Z,1001.60
2019-05-21T10:22:06.280Z,1001.72
2019-05-21T10:23:05.990Z,1001.66
2019-05-21T10:24:05.985Z,1001.68
2019-05-21T10:25:05.973Z,1001.66
2019-05-21T10:26:05.964Z,1001.74
2019-05-21T10:27:05.964Z,1001.72
2019-05-21T10:28:05.932Z,1001.65
2019-05-21T10:29:05.927Z,1001.70
2019-05-21T10:30:05.916Z,1001.79
2019-05-21T10:31:05.906Z,1001.68
2019-05-21T10:32:05.910Z,1001.87
2019-05-21T10:33:05.882Z,1001.76
2019-05-21T10:34:05.869Z,1001.80
2019-05-21T10:35:06.103Z,1001.76
2019-05-21T10:36:05.853Z,1001.77
2019-05-21T10:37:05.858Z,1001.79
2019-05-21T10:38:05.832Z,1001.80
2019-05-21T10:39:05.823Z,1001.81
2019-05-21T10:40:05.810Z,1001.84
2019-05-21T10:41:05.796Z,1001.83
2019-05-21T10:42:05.802Z,1001.89
2019-05-21T10:43:05.778Z,1001.86
2019-05-21T10:44:05.782Z,1001.85
2019-05-21T10:45:05.756Z,1001.91
2019-05-21T10:46:05.746Z,1001.90
2019-05-21T10:47:05.760Z,1001.84
2019-05-21T10:48:05.754Z,1001.85
2019-05-21T10:49:05.720Z,1001.86
2019-05-21T10:50:05.704Z,1001.85
2019-05-21T10:51:05.691Z,1001.84
2019-05-21T10:52:05.699Z,1001.89
2019-05-21T10:53:05.683Z,1001.96
2019-05-21T10:54:05.664Z,1001.91
2019-05-21T10:55:05.652Z,1001.90
2019-05-21T10:56:05.641Z,1001.88
2019-05-21T10:57:05.646Z,1001.89
2019-05-21T10:58:05.619Z,1001.93
2019-05-21T10:59:05.613Z,1001.86
2019-05-21T11:00:05.598Z,1001.83
2019-05-21T11:01:05.601Z,1001.78
2019-05-21T11:02:05.594Z,1001.85
2019-05-21T11:03:05.574Z,1001.87
2019-05-21T11:04:05.564Z,1001.86
2019-05-21T11:05:05.550Z,1001.85
2019-05-21T11:06:10.272Z,1001.87
2019-05-21T11:07:06.537Z,1001.84
2019-05-21T11:08:22.905Z,1001.92
2019-05-21T11:09:06.505Z,1001.94
2019-05-21T11:10:06.663Z,1001.91
2019-05-21T11:11:05.491Z,1001.92
2019-05-21T11:12:05.491Z,1001.97
2019-05-21T11:13:05.473Z,1001.87
2019-05-21T11:14:05.453Z,1001.97
2019-05-21T11:15:05.446Z,1001.96
2019-05-21T11:16:05.444Z,1002.01
2019-05-21T11:17:05.446Z,1001.96
2019-05-21T11:18:11.134Z,1001.98
2019-05-21T11:19:06.418Z,1001.98
2019-05-21T11:20:05.391Z,1002.03
2019-05-21T11:21:05.379Z,1002.02
2019-05-21T11:22:05.367Z,1001.96
2019-05-21T11:23:05.399Z,1001.98
2019-05-21T11:24:05.563Z,1002.21
2019-05-21T11:25:05.337Z,1002.10
2019-05-21T11:26:05.777Z,1002.13
2019-05-21T11:27:05.317Z,1002.03
2019-05-21T11:28:06.231Z,1002.02
2019-05-21T11:29:05.295Z,1001.99
2019-05-21T11:30:05.291Z,1001.98
2019-05-21T11:31:05.280Z,1002.08
2019-05-21T11:32:05.268Z,1002.18
2019-05-21T11:33:05.279Z,1002.12
2019-05-21T11:34:05.246Z,1002.10
2019-05-21T11:35:05.235Z,1002.17
2019-05-21T11:36:05.222Z,1002.19
2019-05-21T11:37:05.221Z,1002.17
2019-05-21T11:38:05.216Z,1002.25
2019-05-21T11:39:05.195Z,1002.34
2019-05-21T11:40:08.373Z,1002.32
2019-05-21T11:41:05.193Z,1002.32
2019-05-21T11:42:05.159Z,1002.29
2019-05-21T11:43:05.187Z,1002.32
2019-05-21T11:44:05.153Z,1002.33
2019-05-21T11:45:05.141Z,1002.26
2019-05-21T11:46:05.120Z,1002.27
2019-05-21T11:47:05.118Z,1002.25
2019-05-21T11:48:05.133Z,1002.03
2019-05-21T11:49:05.125Z,1002.27
2019-05-21T11:50:05.086Z,1002.21
2019-05-21T11:51:05.096Z,1002.37
2019-05-21T11:52:05.071Z,1002.34
2019-05-21T11:53:05.092Z,1002.31
2019-05-21T11:54:05.048Z,1002.34
2019-05-21T11:55:05.030Z,1002.25
2019-05-21T11:56:05.023Z,1002.26
2019-05-21T11:57:05.048Z,1002.24
2019-05-21T11:58:05.039Z,1002.29
2019-05-21T11:59:05.008Z,1002.28
2019-05-21T12:00:04.998Z,1002.29
2019-05-21T12:01:05.016Z,1002.18
2019-05-21T12:02:04.979Z,1002.24
2019-05-21T12:03:04.985Z,1002.26
2019-05-21T12:04:04.979Z,1002.28
2019-05-21T12:05:04.943Z,1002.30
2019-05-21T12:06:04.960Z,1002.33
2019-05-21T12:07:04.927Z,1002.31
2019-05-21T12:08:04.933Z,1002.31
2019-05-21T12:09:04.948Z,1002.30
2019-05-21T12:10:04.907Z,1002.32
2019-05-21T12:11:04.889Z,1002.39